sensor_id;sensor_type;location;lat;lon;timestamp;P1;durP1;ratioP1;P2;durP2;ratioP2
29430;SDS011;16404;49.902;10.074;2023-01-20T00:01:22;46.05;;;23.88;;
29430;SDS011;16404;49.902;10.074;2023-01-20T00:04:32;46.25;;;24.20;;
29430;SDS011;16404;49.902;10.074;2023-01-20T00:11:36;40.42;;;21.15;;
29430;SDS011;16404;49.902;10.074;2023-01-20T00:14:27;39.30;;;20.88;;
29430;SDS011;16404;49.902;10.074;2023-01-20T00:17:24;46.88;;;23.48;;
29430;SDS011;16404;49.902;10.074;2023-01-20T00:20:09;49.28;;;25.00;;
29430;SDS011;16404;49.902;10.074;2023-01-20T00:22:54;37.05;;;20.85;;
29430;SDS011;16404;49.902;10.074;2023-01-20T00:25:39;40.05;;;20.63;;
29430;SDS011;16404;49.902;10.074;2023-01-20T00:28:23;36.30;;;20.08;;
29430;SDS011;16404;49.902;10.074;2023-01-20T00:34:01;38.08;;;20.80;;
29430;SDS011;16404;49.902;10.074;2023-01-20T00:36:46;37.10;;;20.45;;
29430;SDS011;16404;49.902;10.074;2023-01-20T00:39:30;36.50;;;19.52;;
29430;SDS011;16404;49.902;10.074;2023-01-20T00:42:15;34.85;;;20.58;;
29430;SDS011;16404;49.902;10.074;2023-01-20T00:45:00;36.20;;;21.42;;
29430;SDS011;16404;49.902;10.074;2023-01-20T00:47:44;38.92;;;22.02;;
29430;SDS011;16404;49.902;10.074;2023-01-20T00:50:29;38.08;;;21.60;;
29430;SDS011;16404;49.902;10.074;2023-01-20T00:53:14;41.40;;;23.33;;
29430;SDS011;16404;49.902;10.074;2023-01-20T00:55:58;44.90;;;24.35;;
29430;SDS011;16404;49.902;10.074;2023-01-20T00:58:43;45.80;;;24.17;;
29430;SDS011;16404;49.902;10.074;2023-01-20T01:01:28;41.40;;;23.55;;
29430;SDS011;16404;49.902;10.074;2023-01-20T01:04:12;46.83;;;23.83;;
29430;SDS011;16404;49.902;10.074;2023-01-20T01:06:57;46.70;;;22.38;;
29430;SDS011;16404;49.902;10.074;2023-01-20T01:09:43;41.58;;;22.35;;
29430;SDS011;16404;49.902;10.074;2023-01-20T01:12:51;41.05;;;21.13;;
29430;SDS011;16404;49.902;10.074;2023-01-20T01:15:36;39.88;;;22.35;;
29430;SDS011;16404;49.902;10.074;2023-01-20T01:18:21;35.50;;;20.23;;
29430;SDS011;16404;49.902;10.074;2023-01-20T01:23:51;39.22;;;21.27;;
29430;SDS011;16404;49.902;10.074;2023-01-20T01:26:36;42.33;;;23.02;;
29430;SDS011;16404;49.902;10.074;2023-01-20T01:29:21;37.92;;;22.23;;
29430;SDS011;16404;49.902;10.074;2023-01-20T01:32:06;43.90;;;22.83;;
29430;SDS011;16404;49.902;10.074;2023-01-20T01:34:50;44.38;;;24.02;;
29430;SDS011;16404;49.902;10.074;2023-01-20T01:37:35;44.80;;;23.52;;
29430;SDS011;16404;49.902;10.074;2023-01-20T01:40:20;48.30;;;23.98;;
29430;SDS011;16404;49.902;10.074;2023-01-20T01:43:09;47.22;;;24.35;;
29430;SDS011;16404;49.902;10.074;2023-01-20T01:46:03;51.03;;;25.30;;
29430;SDS011;16404;49.902;10.074;2023-01-20T01:51:34;50.13;;;23.95;;
29430;SDS011;16404;49.902;10.074;2023-01-20T01:54:32;52.47;;;25.42;;
29430;SDS011;16404;49.902;10.074;2023-01-20T01:57:19;46.08;;;22.90;;
29430;SDS011;16404;49.902;10.074;2023-01-20T02:00:04;45.00;;;23.20;;
29430;SDS011;16404;49.902;10.074;2023-01-20T02:02:56;46.08;;;23.55;;
29430;SDS011;16404;49.902;10.074;2023-01-20T02:05:41;44.53;;;22.55;;
29430;SDS011;16404;49.902;10.074;2023-01-20T02:08:27;45.75;;;24.00;;
29430;SDS011;16404;49.902;10.074;2023-01-20T02:11:12;42.72;;;23.70;;
29430;SDS011;16404;49.902;10.074;2023-01-20T02:13:56;45.08;;;24.38;;
29430;SDS011;16404;49.902;10.074;2023-01-20T02:22:46;49.53;;;26.83;;
29430;SDS011;16404;49.902;10.074;2023-01-20T02:38:05;46.25;;;23.88;;
29430;SDS011;16404;49.902;10.074;2023-01-20T02:46:48;49.25;;;24.65;;
29430;SDS011;16404;49.902;10.074;2023-01-20T02:52:38;48.15;;;25.13;;
29430;SDS011;16404;49.902;10.074;2023-01-20T02:58:22;49.97;;;25.45;;
29430;SDS011;16404;49.902;10.074;2023-01-20T03:01:09;47.17;;;25.50;;
29430;SDS011;16404;49.902;10.074;2023-01-20T03:04:00;44.28;;;22.52;;
29430;SDS011;16404;49.902;10.074;2023-01-20T03:06:48;45.67;;;23.13;;
29430;SDS011;16404;49.902;10.074;2023-01-20T03:09:37;45.75;;;23.10;;
29430;SDS011;16404;49.902;10.074;2023-01-20T03:12:29;41.75;;;21.38;;
29430;SDS011;16404;49.902;10.074;2023-01-20T03:15:21;40.10;;;21.02;;
29430;SDS011;16404;49.902;10.074;2023-01-20T03:18:10;42.53;;;21.25;;
29430;SDS011;16404;49.902;10.074;2023-01-20T03:20:55;46.50;;;22.67;;
29430;SDS011;16404;49.902;10.074;2023-01-20T03:23:42;39.15;;;20.33;;
29430;SDS011;16404;49.902;10.074;2023-01-20T03:26:29;42.20;;;21.83;;
29430;SDS011;16404;49.902;10.074;2023-01-20T03:29:13;39.85;;;19.20;;
29430;SDS011;16404;49.902;10.074;2023-01-20T03:31:59;39.00;;;20.20;;
29430;SDS011;16404;49.902;10.074;2023-01-20T03:34:45;36.03;;;19.80;;
29430;SDS011;16404;49.902;10.074;2023-01-20T03:37:29;39.88;;;19.95;;
29430;SDS011;16404;49.902;10.074;2023-01-20T03:40:14;41.42;;;23.33;;
29430;SDS011;16404;49.902;10.074;2023-01-20T03:43:00;49.10;;;25.30;;
29430;SDS011;16404;49.902;10.074;2023-01-20T03:46:03;46.47;;;24.83;;
29430;SDS011;16404;49.902;10.074;2023-01-20T03:49:00;46.83;;;25.05;;
29430;SDS011;16404;49.902;10.074;2023-01-20T03:52:02;49.42;;;26.15;;
29430;SDS011;16404;49.902;10.074;2023-01-20T03:54:52;52.70;;;26.58;;
29430;SDS011;16404;49.902;10.074;2023-01-20T03:57:53;49.67;;;26.23;;
29430;SDS011;16404;49.902;10.074;2023-01-20T04:00:47;50.33;;;25.13;;
29430;SDS011;16404;49.902;10.074;2023-01-20T04:03:35;48.97;;;24.42;;
29430;SDS011;16404;49.902;10.074;2023-01-20T04:06:23;47.03;;;24.50;;
29430;SDS011;16404;49.902;10.074;2023-01-20T04:09:11;48.35;;;24.60;;
29430;SDS011;16404;49.902;10.074;2023-01-20T04:11:59;49.13;;;25.23;;
29430;SDS011;16404;49.902;10.074;2023-01-20T04:14:44;48.10;;;24.65;;
29430;SDS011;16404;49.902;10.074;2023-01-20T04:17:29;50.15;;;25.00;;
29430;SDS011;16404;49.902;10.074;2023-01-20T04:20:14;45.95;;;23.67;;
29430;SDS011;16404;49.902;10.074;2023-01-20T04:22:59;46.58;;;24.33;;
29430;SDS011;16404;49.902;10.074;2023-01-20T04:25:45;53.58;;;23.77;;
29430;SDS011;16404;49.902;10.074;2023-01-20T04:28:30;45.05;;;23.67;;
29430;SDS011;16404;49.902;10.074;2023-01-20T04:31:14;49.53;;;22.77;;
29430;SDS011;16404;49.902;10.074;2023-01-20T04:34:00;48.53;;;22.00;;
29430;SDS011;16404;49.902;10.074;2023-01-20T04:36:46;52.47;;;23.00;;
29430;SDS011;16404;49.902;10.074;2023-01-20T04:39:30;43.92;;;22.10;;
29430;SDS011;16404;49.902;10.074;2023-01-20T04:42:15;45.33;;;21.80;;
29430;SDS011;16404;49.902;10.074;2023-01-20T04:45:00;46.92;;;21.90;;
29430;SDS011;16404;49.902;10.074;2023-01-20T04:47:45;47.85;;;22.77;;
29430;SDS011;16404;49.902;10.074;2023-01-20T04:50:29;52.08;;;24.58;;
29430;SDS011;16404;49.902;10.074;2023-01-20T04:53:14;41.08;;;22.52;;
29430;SDS011;16404;49.902;10.074;2023-01-20T04:56:02;42.15;;;21.73;;
29430;SDS011;16404;49.902;10.074;2023-01-20T04:58:46;47.65;;;22.15;;
29430;SDS011;16404;49.902;10.074;2023-01-20T05:01:31;42.47;;;19.55;;
29430;SDS011;16404;49.902;10.074;2023-01-20T05:04:15;33.40;;;17.33;;
29430;SDS011;16404;49.902;10.074;2023-01-20T05:07:00;38.95;;;19.15;;
29430;SDS011;16404;49.902;10.074;2023-01-20T05:09:44;44.38;;;18.67;;
29430;SDS011;16404;49.902;10.074;2023-01-20T05:12:29;36.17;;;18.40;;
29430;SDS011;16404;49.902;10.074;2023-01-20T05:15:14;34.67;;;17.52;;
29430;SDS011;16404;49.902;10.074;2023-01-20T05:17:58;26.77;;;14.23;;
29430;SDS011;16404;49.902;10.074;2023-01-20T05:20:44;26.50;;;11.30;;
29430;SDS011;16404;49.902;10.074;2023-01-20T05:23:29;19.08;;;9.27;;
29430;SDS011;16404;49.902;10.074;2023-01-20T05:26:14;20.35;;;8.77;;
29430;SDS011;16404;49.902;10.074;2023-01-20T05:28:58;19.60;;;9.50;;
29430;SDS011;16404;49.902;10.074;2023-01-20T05:35:51;25.55;;;12.02;;
29430;SDS011;16404;49.902;10.074;2023-01-20T05:39:30;25.40;;;11.77;;
29430;SDS011;16404;49.902;10.074;2023-01-20T05:44:03;21.10;;;11.27;;
29430;SDS011;16404;49.902;10.074;2023-01-20T05:47:57;20.42;;;10.82;;
29430;SDS011;16404;49.902;10.074;2023-01-20T05:52:34;18.75;;;10.00;;
29430;SDS011;16404;49.902;10.074;2023-01-20T05:55:18;21.95;;;11.15;;
29430;SDS011;16404;49.902;10.074;2023-01-20T05:58:03;22.83;;;12.75;;
29430;SDS011;16404;49.902;10.074;2023-01-20T06:00:49;28.48;;;15.75;;
29430;SDS011;16404;49.902;10.074;2023-01-20T06:03:33;27.58;;;16.17;;
29430;SDS011;16404;49.902;10.074;2023-01-20T06:06:18;25.45;;;14.02;;
29430;SDS011;16404;49.902;10.074;2023-01-20T06:09:03;21.58;;;12.77;;
29430;SDS011;16404;49.902;10.074;2023-01-20T06:11:47;27.02;;;13.70;;
29430;SDS011;16404;49.902;10.074;2023-01-20T06:14:33;28.35;;;14.98;;
29430;SDS011;16404;49.902;10.074;2023-01-20T06:17:18;35.72;;;18.45;;
29430;SDS011;16404;49.902;10.074;2023-01-20T06:20:03;33.08;;;16.58;;
29430;SDS011;16404;49.902;10.074;2023-01-20T06:22:52;26.25;;;14.07;;
29430;SDS011;16404;49.902;10.074;2023-01-20T06:25:37;29.08;;;14.73;;
29430;SDS011;16404;49.902;10.074;2023-01-20T06:28:22;21.85;;;13.23;;
29430;SDS011;16404;49.902;10.074;2023-01-20T06:31:08;29.40;;;13.77;;
29430;SDS011;16404;49.902;10.074;2023-01-20T06:33:54;27.75;;;14.60;;
29430;SDS011;16404;49.902;10.074;2023-01-20T06:36:41;21.63;;;13.15;;
29430;SDS011;16404;49.902;10.074;2023-01-20T06:39:26;28.38;;;13.30;;
29430;SDS011;16404;49.902;10.074;2023-01-20T06:42:11;25.60;;;13.15;;
29430;SDS011;16404;49.902;10.074;2023-01-20T06:44:56;26.30;;;13.63;;
29430;SDS011;16404;49.902;10.074;2023-01-20T06:47:40;32.25;;;14.70;;
29430;SDS011;16404;49.902;10.074;2023-01-20T06:50:31;28.48;;;15.57;;
29430;SDS011;16404;49.902;10.074;2023-01-20T06:53:51;27.73;;;15.05;;
29430;SDS011;16404;49.902;10.074;2023-01-20T06:57:42;33.45;;;16.83;;
29430;SDS011;16404;49.902;10.074;2023-01-20T07:01:11;29.23;;;15.57;;
29430;SDS011;16404;49.902;10.074;2023-01-20T07:03:57;26.40;;;15.07;;
29430;SDS011;16404;49.902;10.074;2023-01-20T07:06:42;32.40;;;15.85;;
29430;SDS011;16404;49.902;10.074;2023-01-20T07:09:26;28.80;;;15.90;;
29430;SDS011;16404;49.902;10.074;2023-01-20T07:12:11;31.05;;;16.67;;
29430;SDS011;16404;49.902;10.074;2023-01-20T07:14:56;33.90;;;18.55;;
29430;SDS011;16404;49.902;10.074;2023-01-20T07:17:40;35.83;;;17.30;;
29430;SDS011;16404;49.902;10.074;2023-01-20T07:20:25;32.67;;;17.17;;
29430;SDS011;16404;49.902;10.074;2023-01-20T07:23:09;35.65;;;18.20;;
29430;SDS011;16404;49.902;10.074;2023-01-20T07:25:58;36.80;;;18.63;;
29430;SDS011;16404;49.902;10.074;2023-01-20T07:28:43;43.03;;;23.30;;
29430;SDS011;16404;49.902;10.074;2023-01-20T07:31:29;30.80;;;17.65;;
29430;SDS011;16404;49.902;10.074;2023-01-20T07:34:14;37.33;;;18.70;;
29430;SDS011;16404;49.902;10.074;2023-01-20T07:36:59;41.83;;;21.50;;
29430;SDS011;16404;49.902;10.074;2023-01-20T07:39:46;37.08;;;20.13;;
29430;SDS011;16404;49.902;10.074;2023-01-20T07:42:30;33.95;;;18.65;;
29430;SDS011;16404;49.902;10.074;2023-01-20T07:45:15;34.50;;;17.10;;
29430;SDS011;16404;49.902;10.074;2023-01-20T07:48:03;37.83;;;18.38;;
29430;SDS011;16404;49.902;10.074;2023-01-20T07:50:53;34.42;;;18.67;;
29430;SDS011;16404;49.902;10.074;2023-01-20T07:53:45;39.97;;;20.40;;
29430;SDS011;16404;49.902;10.074;2023-01-20T07:56:31;36.00;;;20.52;;
29430;SDS011;16404;49.902;10.074;2023-01-20T07:59:16;41.00;;;21.08;;
29430;SDS011;16404;49.902;10.074;2023-01-20T08:02:00;44.08;;;22.70;;
29430;SDS011;16404;49.902;10.074;2023-01-20T08:04:45;41.83;;;21.80;;
29430;SDS011;16404;49.902;10.074;2023-01-20T08:07:30;44.38;;;23.23;;
29430;SDS011;16404;49.902;10.074;2023-01-20T08:10:14;40.75;;;21.75;;
29430;SDS011;16404;49.902;10.074;2023-01-20T08:12:59;40.40;;;20.08;;
29430;SDS011;16404;49.902;10.074;2023-01-20T08:15:44;39.42;;;21.60;;
29430;SDS011;16404;49.902;10.074;2023-01-20T08:18:28;46.60;;;23.73;;
29430;SDS011;16404;49.902;10.074;2023-01-20T08:21:21;45.35;;;22.98;;
29430;SDS011;16404;49.902;10.074;2023-01-20T08:24:10;41.10;;;22.45;;
29430;SDS011;16404;49.902;10.074;2023-01-20T08:26:55;38.35;;;20.25;;
29430;SDS011;16404;49.902;10.074;2023-01-20T08:29:40;41.70;;;19.98;;
29430;SDS011;16404;49.902;10.074;2023-01-20T08:32:24;39.63;;;19.17;;
29430;SDS011;16404;49.902;10.074;2023-01-20T08:35:09;36.72;;;19.98;;
29430;SDS011;16404;49.902;10.074;2023-01-20T08:37:53;33.35;;;17.20;;
29430;SDS011;16404;49.902;10.074;2023-01-20T08:40:41;34.42;;;16.95;;
29430;SDS011;16404;49.902;10.074;2023-01-20T08:43:26;36.38;;;18.92;;
29430;SDS011;16404;49.902;10.074;2023-01-20T08:46:11;35.67;;;18.70;;
29430;SDS011;16404;49.902;10.074;2023-01-20T08:49:17;32.90;;;18.40;;
29430;SDS011;16404;49.902;10.074;2023-01-20T08:52:05;33.97;;;16.98;;
29430;SDS011;16404;49.902;10.074;2023-01-20T08:54:52;33.92;;;19.17;;
29430;SDS011;16404;49.902;10.074;2023-01-20T08:57:37;37.33;;;16.73;;
29430;SDS011;16404;49.902;10.074;2023-01-20T09:00:22;30.95;;;16.30;;
29430;SDS011;16404;49.902;10.074;2023-01-20T09:03:08;32.95;;;15.95;;
29430;SDS011;16404;49.902;10.074;2023-01-20T09:05:52;35.17;;;16.13;;
29430;SDS011;16404;49.902;10.074;2023-01-20T09:08:37;32.17;;;14.73;;
29430;SDS011;16404;49.902;10.074;2023-01-20T09:11:22;33.60;;;16.90;;
29430;SDS011;16404;49.902;10.074;2023-01-20T09:14:09;29.05;;;16.13;;
29430;SDS011;16404;49.902;10.074;2023-01-20T09:16:54;28.75;;;16.15;;
29430;SDS011;16404;49.902;10.074;2023-01-20T09:19:39;34.58;;;16.80;;
29430;SDS011;16404;49.902;10.074;2023-01-20T09:22:23;32.38;;;17.35;;
29430;SDS011;16404;49.902;10.074;2023-01-20T09:25:08;30.20;;;16.42;;
29430;SDS011;16404;49.902;10.074;2023-01-20T09:30:37;33.47;;;17.08;;
29430;SDS011;16404;49.902;10.074;2023-01-20T09:33:22;32.08;;;16.75;;
29430;SDS011;16404;49.902;10.074;2023-01-20T09:36:07;30.65;;;17.38;;
29430;SDS011;16404;49.902;10.074;2023-01-20T09:38:53;31.98;;;17.38;;
29430;SDS011;16404;49.902;10.074;2023-01-20T09:41:57;31.85;;;16.75;;
29430;SDS011;16404;49.902;10.074;2023-01-20T09:51:51;38.88;;;17.48;;
29430;SDS011;16404;49.902;10.074;2023-01-20T09:55:20;35.47;;;17.67;;
29430;SDS011;16404;49.902;10.074;2023-01-20T10:03:53;39.33;;;19.10;;
29430;SDS011;16404;49.902;10.074;2023-01-20T10:07:04;37.20;;;18.38;;
29430;SDS011;16404;49.902;10.074;2023-01-20T10:10:02;35.53;;;19.27;;
29430;SDS011;16404;49.902;10.074;2023-01-20T10:19:28;36.90;;;19.08;;
29430;SDS011;16404;49.902;10.074;2023-01-20T10:22:28;35.55;;;18.00;;
29430;SDS011;16404;49.902;10.074;2023-01-20T10:25:27;36.70;;;19.23;;
29430;SDS011;16404;49.902;10.074;2023-01-20T10:28:26;41.30;;;20.15;;
29430;SDS011;16404;49.902;10.074;2023-01-20T10:31:12;34.67;;;17.98;;
29430;SDS011;16404;49.902;10.074;2023-01-20T10:34:11;37.05;;;18.42;;
29430;SDS011;16404;49.902;10.074;2023-01-20T10:37:05;35.35;;;17.88;;
29430;SDS011;16404;49.902;10.074;2023-01-20T10:42:47;42.22;;;19.58;;
29430;SDS011;16404;49.902;10.074;2023-01-20T10:54:13;34.28;;;18.60;;
29430;SDS011;16404;49.902;10.074;2023-01-20T10:57:20;36.83;;;19.13;;
29430;SDS011;16404;49.902;10.074;2023-01-20T11:00:08;36.60;;;17.60;;
29430;SDS011;16404;49.902;10.074;2023-01-20T11:03:04;29.30;;;16.20;;
29430;SDS011;16404;49.902;10.074;2023-01-20T11:05:53;31.20;;;16.77;;
29430;SDS011;16404;49.902;10.074;2023-01-20T11:08:38;29.92;;;16.45;;
29430;SDS011;16404;49.902;10.074;2023-01-20T11:11:23;27.20;;;14.88;;
29430;SDS011;16404;49.902;10.074;2023-01-20T11:14:08;31.77;;;17.20;;
29430;SDS011;16404;49.902;10.074;2023-01-20T11:16:54;30.88;;;16.55;;
29430;SDS011;16404;49.902;10.074;2023-01-20T11:20:18;29.77;;;15.23;;
29430;SDS011;16404;49.902;10.074;2023-01-20T11:23:02;30.10;;;16.65;;
29430;SDS011;16404;49.902;10.074;2023-01-20T11:25:56;30.15;;;16.85;;
29430;SDS011;16404;49.902;10.074;2023-01-20T11:31:54;34.63;;;19.13;;
29430;SDS011;16404;49.902;10.074;2023-01-20T11:34:41;36.97;;;19.73;;
29430;SDS011;16404;49.902;10.074;2023-01-20T11:37:36;31.48;;;17.42;;
29430;SDS011;16404;49.902;10.074;2023-01-20T11:40:24;40.38;;;21.88;;
29430;SDS011;16404;49.902;10.074;2023-01-20T11:43:10;30.85;;;17.20;;
29430;SDS011;16404;49.902;10.074;2023-01-20T11:46:15;39.58;;;19.35;;
29430;SDS011;16404;49.902;10.074;2023-01-20T11:49:18;34.58;;;19.38;;
29430;SDS011;16404;49.902;10.074;2023-01-20T11:52:18;30.33;;;17.52;;
29430;SDS011;16404;49.902;10.074;2023-01-20T11:58:05;30.02;;;16.95;;
29430;SDS011;16404;49.902;10.074;2023-01-20T12:01:03;31.92;;;16.40;;
29430;SDS011;16404;49.902;10.074;2023-01-20T12:07:13;31.33;;;18.40;;
29430;SDS011;16404;49.902;10.074;2023-01-20T12:10:21;35.38;;;19.00;;
29430;SDS011;16404;49.902;10.074;2023-01-20T12:15:58;34.15;;;16.67;;
29430;SDS011;16404;49.902;10.074;2023-01-20T12:18:44;34.13;;;17.52;;
29430;SDS011;16404;49.902;10.074;2023-01-20T12:21:37;30.17;;;15.98;;
29430;SDS011;16404;49.902;10.074;2023-01-20T12:24:30;32.45;;;18.27;;
29430;SDS011;16404;49.902;10.074;2023-01-20T12:30:49;33.20;;;17.88;;
29430;SDS011;16404;49.902;10.074;2023-01-20T12:33:43;39.17;;;19.25;;
29430;SDS011;16404;49.902;10.074;2023-01-20T12:42:48;32.33;;;17.40;;
29430;SDS011;16404;49.902;10.074;2023-01-20T12:46:18;31.27;;;17.33;;
29430;SDS011;16404;49.902;10.074;2023-01-20T12:58:06;43.47;;;21.88;;
29430;SDS011;16404;49.902;10.074;2023-01-20T13:04:54;47.53;;;24.23;;
29430;SDS011;16404;49.902;10.074;2023-01-20T13:10:47;41.33;;;22.40;;
29430;SDS011;16404;49.902;10.074;2023-01-20T13:19:40;43.10;;;22.63;;
29430;SDS011;16404;49.902;10.074;2023-01-20T13:22:29;45.95;;;23.60;;
29430;SDS011;16404;49.902;10.074;2023-01-20T13:27:59;102.72;;;46.03;;
29430;SDS011;16404;49.902;10.074;2023-01-20T13:30:45;55.58;;;29.02;;
29430;SDS011;16404;49.902;10.074;2023-01-20T13:33:37;55.22;;;27.42;;
29430;SDS011;16404;49.902;10.074;2023-01-20T13:36:23;49.05;;;26.65;;
29430;SDS011;16404;49.902;10.074;2023-01-20T13:45:20;44.13;;;24.27;;
29430;SDS011;16404;49.902;10.074;2023-01-20T13:50:51;46.45;;;22.92;;
29430;SDS011;16404;49.902;10.074;2023-01-20T13:53:36;48.60;;;23.95;;
29430;SDS011;16404;49.902;10.074;2023-01-20T13:56:27;53.20;;;26.45;;
29430;SDS011;16404;49.902;10.074;2023-01-20T13:59:15;50.80;;;26.55;;
29430;SDS011;16404;49.902;10.074;2023-01-20T14:05:22;45.83;;;24.15;;
29430;SDS011;16404;49.902;10.074;2023-01-20T14:08:12;52.38;;;25.33;;
29430;SDS011;16404;49.902;10.074;2023-01-20T14:11:17;43.60;;;22.55;;
29430;SDS011;16404;49.902;10.074;2023-01-20T14:14:16;52.13;;;25.50;;
29430;SDS011;16404;49.902;10.074;2023-01-20T14:17:02;47.17;;;23.35;;
29430;SDS011;16404;49.902;10.074;2023-01-20T14:19:47;47.85;;;24.13;;
29430;SDS011;16404;49.902;10.074;2023-01-20T14:22:33;45.30;;;22.85;;
29430;SDS011;16404;49.902;10.074;2023-01-20T14:25:19;47.50;;;23.08;;
29430;SDS011;16404;49.902;10.074;2023-01-20T14:28:16;48.97;;;23.85;;
29430;SDS011;16404;49.902;10.074;2023-01-20T14:34:15;52.95;;;24.08;;
29430;SDS011;16404;49.902;10.074;2023-01-20T14:37:30;45.72;;;23.27;;
29430;SDS011;16404;49.902;10.074;2023-01-20T14:40:24;48.00;;;23.63;;
29430;SDS011;16404;49.902;10.074;2023-01-20T14:43:19;50.53;;;24.38;;
29430;SDS011;16404;49.902;10.074;2023-01-20T14:46:05;48.25;;;23.45;;
29430;SDS011;16404;49.902;10.074;2023-01-20T14:48:50;46.75;;;23.08;;
29430;SDS011;16404;49.902;10.074;2023-01-20T14:51:36;49.10;;;23.83;;
29430;SDS011;16404;49.902;10.074;2023-01-20T15:03:14;57.90;;;30.60;;
29430;SDS011;16404;49.902;10.074;2023-01-20T15:09:03;51.45;;;26.08;;
29430;SDS011;16404;49.902;10.074;2023-01-20T15:18:21;50.00;;;27.73;;
29430;SDS011;16404;49.902;10.074;2023-01-20T15:21:10;52.45;;;26.58;;
29430;SDS011;16404;49.902;10.074;2023-01-20T15:24:20;49.45;;;25.95;;
29430;SDS011;16404;49.902;10.074;2023-01-20T15:27:18;46.55;;;25.05;;
29430;SDS011;16404;49.902;10.074;2023-01-20T15:30:14;46.35;;;23.23;;
29430;SDS011;16404;49.902;10.074;2023-01-20T15:33:02;44.83;;;23.52;;
29430;SDS011;16404;49.902;10.074;2023-01-20T15:35:51;53.47;;;28.33;;
29430;SDS011;16404;49.902;10.074;2023-01-20T15:38:37;50.25;;;27.00;;
29430;SDS011;16404;49.902;10.074;2023-01-20T15:41:22;54.40;;;27.75;;
29430;SDS011;16404;49.902;10.074;2023-01-20T15:46:51;53.92;;;27.48;;
29430;SDS011;16404;49.902;10.074;2023-01-20T15:49:37;49.00;;;26.55;;
29430;SDS011;16404;49.902;10.074;2023-01-20T15:52:21;48.53;;;26.75;;
29430;SDS011;16404;49.902;10.074;2023-01-20T15:55:07;54.90;;;27.95;;
29430;SDS011;16404;49.902;10.074;2023-01-20T15:57:56;55.67;;;27.27;;
29430;SDS011;16404;49.902;10.074;2023-01-20T16:00:41;53.58;;;25.63;;
29430;SDS011;16404;49.902;10.074;2023-01-20T16:03:26;48.80;;;25.33;;
29430;SDS011;16404;49.902;10.074;2023-01-20T16:06:12;49.25;;;23.90;;
29430;SDS011;16404;49.902;10.074;2023-01-20T16:08:59;41.85;;;23.23;;
29430;SDS011;16404;49.902;10.074;2023-01-20T16:11:44;45.75;;;26.00;;
29430;SDS011;16404;49.902;10.074;2023-01-20T16:14:30;48.63;;;25.17;;
29430;SDS011;16404;49.902;10.074;2023-01-20T16:17:16;45.45;;;24.90;;
29430;SDS011;16404;49.902;10.074;2023-01-20T16:20:04;43.70;;;24.65;;
29430;SDS011;16404;49.902;10.074;2023-01-20T16:23:07;53.58;;;21.00;;
29430;SDS011;16404;49.902;10.074;2023-01-20T16:25:53;94.38;;;18.10;;
29430;SDS011;16404;49.902;10.074;2023-01-20T16:28:37;87.40;;;18.00;;
29430;SDS011;16404;49.902;10.074;2023-01-20T16:31:22;227.85;;;19.88;;
29430;SDS011;16404;49.902;10.074;2023-01-20T16:34:08;56.90;;;19.85;;
29430;SDS011;16404;49.902;10.074;2023-01-20T16:36:52;50.33;;;16.65;;
29430;SDS011;16404;49.902;10.074;2023-01-20T16:39:37;32.72;;;17.02;;
29430;SDS011;16404;49.902;10.074;2023-01-20T16:42:22;41.97;;;17.65;;
29430;SDS011;16404;49.902;10.074;2023-01-20T16:48:01;102.05;;;14.75;;
29430;SDS011;16404;49.902;10.074;2023-01-20T16:50:46;32.55;;;13.32;;
29430;SDS011;16404;49.902;10.074;2023-01-20T16:53:31;30.50;;;13.98;;
29430;SDS011;16404;49.902;10.074;2023-01-20T16:56:20;57.70;;;14.93;;
29430;SDS011;16404;49.902;10.074;2023-01-20T16:59:07;102.63;;;21.20;;
29430;SDS011;16404;49.902;10.074;2023-01-20T17:01:52;99.90;;;20.10;;
29430;SDS011;16404;49.902;10.074;2023-01-20T17:04:37;68.95;;;19.88;;
29430;SDS011;16404;49.902;10.074;2023-01-20T17:07:21;63.47;;;26.10;;
29430;SDS011;16404;49.902;10.074;2023-01-20T17:10:06;48.85;;;24.45;;
29430;SDS011;16404;49.902;10.074;2023-01-20T17:12:52;97.35;;;26.10;;
29430;SDS011;16404;49.902;10.074;2023-01-20T17:15:36;78.70;;;42.20;;
29430;SDS011;16404;49.902;10.074;2023-01-20T17:18:25;74.07;;;23.83;;
29430;SDS011;16404;49.902;10.074;2023-01-20T17:21:10;50.80;;;22.02;;
29430;SDS011;16404;49.902;10.074;2023-01-20T17:23:56;51.05;;;20.63;;
29430;SDS011;16404;49.902;10.074;2023-01-20T17:26:44;90.63;;;33.33;;
29430;SDS011;16404;49.902;10.074;2023-01-20T17:29:29;84.75;;;32.13;;
29430;SDS011;16404;49.902;10.074;2023-01-20T17:32:14;111.85;;;29.92;;
29430;SDS011;16404;49.902;10.074;2023-01-20T17:34:59;189.88;;;24.02;;
29430;SDS011;16404;49.902;10.074;2023-01-20T17:37:43;247.27;;;21.05;;
29430;SDS011;16404;49.902;10.074;2023-01-20T17:40:28;52.88;;;16.05;;
29430;SDS011;16404;49.902;10.074;2023-01-20T17:43:12;246.93;;;19.75;;
29430;SDS011;16404;49.902;10.074;2023-01-20T17:45:57;82.65;;;17.20;;
29430;SDS011;16404;49.902;10.074;2023-01-20T17:48:42;129.25;;;19.13;;
29430;SDS011;16404;49.902;10.074;2023-01-20T17:51:27;49.42;;;17.67;;
29430;SDS011;16404;49.902;10.074;2023-01-20T17:54:12;43.88;;;20.73;;
29430;SDS011;16404;49.902;10.074;2023-01-20T17:56:57;66.03;;;22.33;;
29430;SDS011;16404;49.902;10.074;2023-01-20T17:59:41;68.97;;;24.80;;
29430;SDS011;16404;49.902;10.074;2023-01-20T18:02:26;68.38;;;24.90;;
29430;SDS011;16404;49.902;10.074;2023-01-20T18:05:10;60.83;;;27.60;;
29430;SDS011;16404;49.902;10.074;2023-01-20T18:07:55;51.72;;;22.58;;
29430;SDS011;16404;49.902;10.074;2023-01-20T18:10:40;44.78;;;20.95;;
29430;SDS011;16404;49.902;10.074;2023-01-20T18:13:25;49.42;;;21.33;;
29430;SDS011;16404;49.902;10.074;2023-01-20T18:16:10;39.30;;;19.80;;
29430;SDS011;16404;49.902;10.074;2023-01-20T18:18:56;39.85;;;19.10;;
29430;SDS011;16404;49.902;10.074;2023-01-20T18:21:41;36.58;;;18.67;;
29430;SDS011;16404;49.902;10.074;2023-01-20T18:24:26;49.70;;;18.10;;
29430;SDS011;16404;49.902;10.074;2023-01-20T18:27:11;41.17;;;19.08;;
29430;SDS011;16404;49.902;10.074;2023-01-20T18:29:55;53.33;;;18.33;;
29430;SDS011;16404;49.902;10.074;2023-01-20T18:32:40;134.15;;;18.73;;
29430;SDS011;16404;49.902;10.074;2023-01-20T18:35:24;44.55;;;17.58;;
29430;SDS011;16404;49.902;10.074;2023-01-20T18:38:09;39.00;;;18.23;;
29430;SDS011;16404;49.902;10.074;2023-01-20T18:40:53;52.95;;;20.00;;
29430;SDS011;16404;49.902;10.074;2023-01-20T18:43:38;54.22;;;22.33;;
29430;SDS011;16404;49.902;10.074;2023-01-20T18:46:24;69.38;;;24.05;;
29430;SDS011;16404;49.902;10.074;2023-01-20T18:49:13;96.18;;;25.95;;
29430;SDS011;16404;49.902;10.074;2023-01-20T18:51:59;83.68;;;20.42;;
29430;SDS011;16404;49.902;10.074;2023-01-20T18:54:44;45.05;;;16.92;;
29430;SDS011;16404;49.902;10.074;2023-01-20T18:57:29;82.88;;;21.20;;
29430;SDS011;16404;49.902;10.074;2023-01-20T19:00:14;88.57;;;21.25;;
29430;SDS011;16404;49.902;10.074;2023-01-20T19:02:58;69.97;;;20.50;;